• Join FlightAware (Why Join?)
  • Login
  • US Flag 
07:18AM EDT


 

Airport Tracker/Info


-or-


 

Live Flight TrackerFlight Track Log ✈ C-GEDA ✈ 26-Aug-2013 ✈ CYXS - CGL4

Flight Track Log - Related Links

Times and Time Zones

All times are in EDT time to prevent confusion due to time zone crossing. See the C-GEDA flight status page for this flight to view local times or setup timezone preferences in your user account.

Time Position Orientation Groundspeed Altitude Reporting Facility
EDT Latitude Longitude Course Direction KTS MPH feet Rate Location/Type
11:57AM 53.8950 -122.6010 80° East 136 157 3,600  Level FlightAware
11:57AM 53.8980 -122.5700 81° East 137 158 4,100 1,020 Climbing FlightAware
11:58AM 53.9000 -122.5540 78° East 135 155 4,400 1,080 Climbing FlightAware
11:58AM 53.9110 -122.5300 52° Northeast 139 160 4,900 960 Climbing FlightAware
11:58AM 53.9180 -122.5110 58° Northeast 138 159 5,200 900 Climbing FlightAware
11:59AM 53.9260 -122.4930 53° Northeast 138 159 5,500 420 Climbing FlightAware
11:59AM 53.9370 -122.4690 52° Northeast 137 158 5,600 900 Climbing FlightAware
12:00PM 53.9450 -122.4470 58° Northeast 139 160 6,300 1,620 Climbing FlightAware
12:00PM 53.9520 -122.4320 52° Northeast 139 160 6,600 840 Climbing FlightAware
12:00PM 53.9600 -122.4110 57° Northeast 138 159 6,900 900 Climbing FlightAware
12:01PM 53.9680 -122.3920 54° Northeast 138 159 7,300 900 Climbing FlightAware
12:01PM 53.9720 -122.3820 56° Northeast 137 158 7,400 720 Climbing FlightAware
12:01PM 53.9800 -122.3640 53° Northeast 136 157 7,700 900 Climbing FlightAware
12:02PM 53.9880 -122.3430 57° Northeast 137 158 8,100 960 Climbing FlightAware
12:02PM 53.9950 -122.3270 53° Northeast 137 158 8,400 900 Climbing FlightAware
12:02PM 54.0020 -122.3100 55° Northeast 139 160 8,700 780 Climbing FlightAware
12:02PM 54.0090 -122.2930 55° Northeast 140 161 8,900 720 Climbing FlightAware
12:03PM 54.0170 -122.2750 53° Northeast 142 163 9,200 840 Climbing FlightAware
12:03PM 54.0240 -122.2560 58° Northeast 142 163 9,500 900 Climbing FlightAware
12:04PM 54.0320 -122.2380 53° Northeast 142 163 9,800 900 Climbing FlightAware
12:04PM 54.0440 -122.2090 55° Northeast 144 166 10,300 840 Climbing FlightAware
12:05PM 54.0560 -122.1800 55° Northeast 147 169 10,700 600 Climbing FlightAware
12:05PM 54.0710 -122.1440 55° Northeast 164 189 11,000 300 Climbing FlightAware
12:06PM 54.0860 -122.1080 55° Northeast 178 205 11,100 60 Climbing FlightAware
12:06PM 54.1050 -122.0620 55° Northeast 184 212 11,100  Level FlightAware
12:07PM 54.1230 -122.0190 54° Northeast 186 214 11,100  Level FlightAware
12:07PM 54.1390 -121.9800 55° Northeast 189 217 11,100  Level FlightAware
12:08PM 54.1560 -121.9370 56° Northeast 191 220 11,100  Level FlightAware
12:09PM 54.1750 -121.8920 54° Northeast 195 224 11,100  Level FlightAware
12:09PM 54.1910 -121.8530 55° Northeast 196 226 11,100  Level FlightAware
12:10PM 54.2090 -121.8090 55° Northeast 196 226 11,100  Level FlightAware
12:10PM 54.2290 -121.7580 56° Northeast 196 226 11,100  Level FlightAware
12:11PM 54.2470 -121.7140 55° Northeast 197 227 11,100  Level FlightAware
12:11PM 54.2600 -121.6820 55° Northeast 197 227 11,100  Level FlightAware
12:12PM 54.2820 -121.6300 54° Northeast 197 227 11,100  Level FlightAware
12:13PM 54.2970 -121.5920 56° Northeast 197 227 11,100 -120 Level FlightAware
12:14PM 54.3167 -121.4833 56° Northeast 200 230 11,000 -60 Descending Vancouver Center
12:15PM 54.3500 -121.4167 49° Northeast 200 230 11,000  Level Vancouver Center
12:16PM 54.3833 -121.3333 55° Northeast 200 230 11,000  Level Vancouver Center
12:17PM 54.4167 -121.2500 55° Northeast 200 230 11,000  Level Vancouver Center
12:18PM 54.4500 -121.1833 49° Northeast 200 230 11,000  Level Vancouver Center
12:19PM 54.4833 -121.1000 55° Northeast 190 219 11,000 -60 Level Vancouver Center
12:20PM 54.5167 -121.0333 49° Northeast 200 230 10,900 -60 Descending Vancouver Center
12:21PM 54.5500 -120.9500 55° Northeast 200 230 10,900  Level Vancouver Center
12:22PM 54.5833 -120.8667 55° Northeast 190 219 10,900  Level Vancouver Center
12:23PM 54.6167 -120.8000 49° Northeast 200 230 10,900  Level Vancouver Center
12:24PM 54.6333 -120.7167 71° East 200 230 10,900  Level Vancouver Center
12:25PM 54.6667 -120.6167 60° Northeast 200 230 10,900  Level Vancouver Center
12:26PM 54.6833 -120.5667 60° Northeast 200 230 10,900  Level Vancouver Center
12:27PM 54.7167 -120.4667 60° Northeast 200 230 10,900  Level Vancouver Center
12:28PM 54.7500 -120.3833 55° Northeast 200 230 10,900  Level Vancouver Center
12:29PM 54.7833 -120.3167 49° Northeast 190 219 10,900  Level Vancouver Center
12:30PM 54.8167 -120.2333 55° Northeast 190 219 10,900  Level Vancouver Center
12:31PM 54.8500 -120.1667 49° Northeast 190 219 10,900 -180 Level Vancouver Center
12:32PM 54.8667 -120.0833 71° East 200 230 10,600 -420 Descending Vancouver Center
12:33PM 54.9000 -120.0000 55° Northeast 210 242 10,100 -600 Descending Vancouver Center
12:34PM 54.9333 -119.9000 60° Northeast 210 242 9,500 -600 Descending Vancouver Center
12:35PM 54.9667 -119.8500 41° Northeast 210 242 8,900 -600 Descending Vancouver Center
12:36PM 55.0000 -119.7500 60° Northeast 210 242 8,400 -600 Descending Vancouver Center
12:37PM 55.0167 -119.7167 49° Northeast 200 230 7,600 -600 Descending Edmonton Center
12:38PM 55.0500 -119.6333 55° Northeast 200 230 7,100 -300 Descending Edmonton Center
12:39PM 55.0833 -119.5500 55° Northeast 190 219 7,000 -60 Descending Edmonton Center
12:40PM 55.1000 -119.4667 71° East 180 207 7,000  Level Edmonton Center
12:41PM 55.1333 -119.3833 55° Northeast 180 207 7,000  Level Edmonton Center
12:42PM 55.1500 -119.3333 60° Northeast 170 196 7,000  Level Edmonton Center
12:43PM 55.1833 -119.2667 49° Northeast 170 196 7,000  Level Edmonton Center
12:44PM 55.2167 -119.1833 55° Northeast 170 196 7,000  Level Edmonton Center
12:45PM 55.2333 -119.1333 60° Northeast 170 196 7,000  Level Edmonton Center
12:46PM 55.2667 -119.0500 55° Northeast 170 196 7,000  Level Edmonton Center
12:47PM 55.2833 -118.9667 71° East 170 196 7,000 -240 Level Edmonton Center
12:48PM 55.3333 -118.8833 43° Northeast 180 207 6,600 -420 Descending Edmonton Center
12:49PM 55.3500 -118.8167 66° East 190 219 6,200 -420 Descending Edmonton Center
12:50PM 55.3833 -118.7333 55° Northeast 180 207 5,800 -480 Descending Edmonton Center
12:51PM 55.4167 -118.6833 40° Northeast 180 207 5,300 -540 Descending Edmonton Center
12:52PM 55.4333 -118.6000 71° East 190 219 4,800 -600 Descending Edmonton Center
12:53PM 55.4667 -118.5167 55° Northeast 190 219 4,100 -600 Descending Edmonton Center
12:54PM 55.4833 -118.4333 71° East 180 207 3,600 -300 Descending Edmonton Center
12:55PM 55.5167 -118.3500 55° Northeast 170 196 3,500 -60 Descending Edmonton Center
12:56PM 55.5333 -118.3000 59° Northeast 160 184 3,500  Level Edmonton Center
12:57PM 55.5667 -118.2167 55° Northeast 160 184 3,500 -120 Level Edmonton Center
12:58PM 55.5833 -118.1667 59° Northeast 150 173 3,300 -240 Descending Edmonton Center
12:59PM 55.6167 -118.1167 40° Northeast 140 161 3,100 -240 Descending Edmonton Center
01:01PM 55.6475 -118.0039 64° Northeast  Level FlightAware Approximate
01:08PM 55.6667 -117.9333 57° Northeast  Level FlightAware Approximate
01:09PM 55.6667 -117.9333 57° Northeast  Level FlightAware Approximate
01:10PM 55.6667 -117.9333 57° Northeast  Level FlightAware Approximate
01:11PM 55.6667 -117.9333 57° Northeast  Level FlightAware Approximate
01:12PM 55.6667 -117.9333 57° Northeast  Level FlightAware Approximate
01:13PM 55.6667 -117.9333 57° Northeast  Level FlightAware Approximate
01:14PM 55.6667 -117.9333 57° Northeast  Level FlightAware Approximate